sensor_id;sensor_type;location;lat;lon;timestamp;P1;durP1;ratioP1;P2;durP2;ratioP2
27163;SDS011;14685;50.618;7.024;2023-09-18T00:01:43;12.85;;;5.93;;
27163;SDS011;14685;50.618;7.024;2023-09-18T00:04:09;14.55;;;5.88;;
27163;SDS011;14685;50.618;7.024;2023-09-18T00:06:37;9.55;;;5.47;;
27163;SDS011;14685;50.618;7.024;2023-09-18T00:09:04;11.18;;;5.45;;
27163;SDS011;14685;50.618;7.024;2023-09-18T00:11:33;10.35;;;5.63;;
27163;SDS011;14685;50.618;7.024;2023-09-18T00:14:01;8.63;;;5.22;;
27163;SDS011;14685;50.618;7.024;2023-09-18T00:16:29;12.45;;;5.93;;
27163;SDS011;14685;50.618;7.024;2023-09-18T00:19:13;14.35;;;5.55;;
27163;SDS011;14685;50.618;7.024;2023-09-18T00:21:40;12.35;;;5.93;;
27163;SDS011;14685;50.618;7.024;2023-09-18T00:24:06;8.95;;;5.38;;
27163;SDS011;14685;50.618;7.024;2023-09-18T00:26:35;8.48;;;5.80;;
27163;SDS011;14685;50.618;7.024;2023-09-18T00:29:02;11.25;;;5.15;;
27163;SDS011;14685;50.618;7.024;2023-09-18T00:31:29;12.40;;;5.93;;
27163;SDS011;14685;50.618;7.024;2023-09-18T00:33:56;14.35;;;5.55;;
27163;SDS011;14685;50.618;7.024;2023-09-18T00:36:28;13.00;;;5.68;;
27163;SDS011;14685;50.618;7.024;2023-09-18T00:38:55;7.55;;;4.90;;
27163;SDS011;14685;50.618;7.024;2023-09-18T00:41:22;15.05;;;5.95;;
27163;SDS011;14685;50.618;7.024;2023-09-18T00:43:49;8.75;;;5.50;;
27163;SDS011;14685;50.618;7.024;2023-09-18T00:46:16;11.05;;;5.68;;
27163;SDS011;14685;50.618;7.024;2023-09-18T00:48:45;14.25;;;5.53;;
27163;SDS011;14685;50.618;7.024;2023-09-18T00:51:13;13.40;;;5.10;;
27163;SDS011;14685;50.618;7.024;2023-09-18T00:53:44;14.50;;;5.20;;
27163;SDS011;14685;50.618;7.024;2023-09-18T00:58:43;7.35;;;4.80;;
27163;SDS011;14685;50.618;7.024;2023-09-18T01:01:12;11.82;;;5.18;;
27163;SDS011;14685;50.618;7.024;2023-09-18T01:03:51;10.35;;;5.20;;
27163;SDS011;14685;50.618;7.024;2023-09-18T01:06:20;12.07;;;5.22;;
27163;SDS011;14685;50.618;7.024;2023-09-18T01:08:48;13.90;;;5.20;;
27163;SDS011;14685;50.618;7.024;2023-09-18T01:11:26;10.98;;;5.30;;
27163;SDS011;14685;50.618;7.024;2023-09-18T01:14:09;10.23;;;4.97;;
27163;SDS011;14685;50.618;7.024;2023-09-18T01:16:49;14.02;;;4.82;;
27163;SDS011;14685;50.618;7.024;2023-09-18T01:19:36;8.60;;;5.30;;
27163;SDS011;14685;50.618;7.024;2023-09-18T01:22:14;15.10;;;5.65;;
27163;SDS011;14685;50.618;7.024;2023-09-18T01:24:44;11.82;;;6.03;;
27163;SDS011;14685;50.618;7.024;2023-09-18T01:27:14;13.70;;;5.07;;
27163;SDS011;14685;50.618;7.024;2023-09-18T01:29:46;13.98;;;5.63;;
27163;SDS011;14685;50.618;7.024;2023-09-18T01:32:14;11.90;;;5.25;;
27163;SDS011;14685;50.618;7.024;2023-09-18T01:34:48;11.45;;;4.88;;
27163;SDS011;14685;50.618;7.024;2023-09-18T01:37:17;7.30;;;4.87;;
27163;SDS011;14685;50.618;7.024;2023-09-18T01:39:53;8.90;;;5.00;;
27163;SDS011;14685;50.618;7.024;2023-09-18T01:42:21;11.98;;;4.85;;
27163;SDS011;14685;50.618;7.024;2023-09-18T01:44:49;11.57;;;4.75;;
27163;SDS011;14685;50.618;7.024;2023-09-18T01:47:16;10.93;;;4.97;;
27163;SDS011;14685;50.618;7.024;2023-09-18T01:49:45;12.27;;;6.10;;
27163;SDS011;14685;50.618;7.024;2023-09-18T01:52:12;13.10;;;5.25;;
27163;SDS011;14685;50.618;7.024;2023-09-18T01:54:39;12.65;;;5.13;;
27163;SDS011;14685;50.618;7.024;2023-09-18T01:57:07;12.75;;;5.50;;
27163;SDS011;14685;50.618;7.024;2023-09-18T02:02:38;7.10;;;4.95;;
27163;SDS011;14685;50.618;7.024;2023-09-18T02:05:26;9.68;;;5.00;;
27163;SDS011;14685;50.618;7.024;2023-09-18T02:07:55;13.45;;;4.75;;
27163;SDS011;14685;50.618;7.024;2023-09-18T02:10:23;17.02;;;4.65;;
27163;SDS011;14685;50.618;7.024;2023-09-18T02:12:50;14.82;;;4.32;;
27163;SDS011;14685;50.618;7.024;2023-09-18T02:15:18;14.02;;;4.28;;
27163;SDS011;14685;50.618;7.024;2023-09-18T02:17:45;9.73;;;4.40;;
27163;SDS011;14685;50.618;7.024;2023-09-18T02:20:12;15.10;;;4.70;;
27163;SDS011;14685;50.618;7.024;2023-09-18T02:22:39;11.98;;;4.60;;
27163;SDS011;14685;50.618;7.024;2023-09-18T02:25:08;11.23;;;4.57;;
27163;SDS011;14685;50.618;7.024;2023-09-18T02:27:35;14.07;;;4.65;;
27163;SDS011;14685;50.618;7.024;2023-09-18T02:30:02;9.02;;;4.68;;
27163;SDS011;14685;50.618;7.024;2023-09-18T02:32:30;10.93;;;3.83;;
27163;SDS011;14685;50.618;7.024;2023-09-18T02:34:58;10.75;;;4.55;;
27163;SDS011;14685;50.618;7.024;2023-09-18T02:37:25;10.60;;;4.60;;
27163;SDS011;14685;50.618;7.024;2023-09-18T02:39:52;11.13;;;4.68;;
27163;SDS011;14685;50.618;7.024;2023-09-18T02:42:19;16.30;;;4.70;;
27163;SDS011;14685;50.618;7.024;2023-09-18T02:44:46;13.15;;;4.57;;
27163;SDS011;14685;50.618;7.024;2023-09-18T02:47:13;12.35;;;4.40;;
27163;SDS011;14685;50.618;7.024;2023-09-18T02:49:42;10.35;;;3.90;;
27163;SDS011;14685;50.618;7.024;2023-09-18T02:52:09;13.07;;;4.43;;
27163;SDS011;14685;50.618;7.024;2023-09-18T02:54:36;13.93;;;3.83;;
27163;SDS011;14685;50.618;7.024;2023-09-18T02:57:03;11.40;;;4.30;;
27163;SDS011;14685;50.618;7.024;2023-09-18T02:59:30;13.85;;;4.82;;
27163;SDS011;14685;50.618;7.024;2023-09-18T03:01:58;9.20;;;3.90;;
27163;SDS011;14685;50.618;7.024;2023-09-18T03:04:25;15.30;;;4.82;;
27163;SDS011;14685;50.618;7.024;2023-09-18T03:06:52;9.82;;;4.50;;
27163;SDS011;14685;50.618;7.024;2023-09-18T03:09:19;12.32;;;4.78;;
27163;SDS011;14685;50.618;7.024;2023-09-18T03:11:47;15.43;;;4.22;;
27163;SDS011;14685;50.618;7.024;2023-09-18T03:14:14;14.18;;;4.45;;
27163;SDS011;14685;50.618;7.024;2023-09-18T03:16:41;13.43;;;3.90;;
27163;SDS011;14685;50.618;7.024;2023-09-18T03:19:08;15.52;;;4.13;;
27163;SDS011;14685;50.618;7.024;2023-09-18T03:21:35;12.32;;;4.05;;
27163;SDS011;14685;50.618;7.024;2023-09-18T03:24:02;11.48;;;4.38;;
27163;SDS011;14685;50.618;7.024;2023-09-18T03:26:30;14.95;;;4.55;;
27163;SDS011;14685;50.618;7.024;2023-09-18T03:28:57;11.07;;;4.30;;
27163;SDS011;14685;50.618;7.024;2023-09-18T03:31:23;13.95;;;4.53;;
27163;SDS011;14685;50.618;7.024;2023-09-18T03:33:50;12.30;;;4.18;;
27163;SDS011;14685;50.618;7.024;2023-09-18T03:36:20;12.88;;;4.18;;
27163;SDS011;14685;50.618;7.024;2023-09-18T03:38:49;12.85;;;4.30;;
27163;SDS011;14685;50.618;7.024;2023-09-18T03:41:19;9.00;;;3.90;;
27163;SDS011;14685;50.618;7.024;2023-09-18T03:43:46;12.43;;;4.82;;
27163;SDS011;14685;50.618;7.024;2023-09-18T03:46:13;11.90;;;4.57;;
27163;SDS011;14685;50.618;7.024;2023-09-18T03:48:40;11.25;;;4.40;;
27163;SDS011;14685;50.618;7.024;2023-09-18T03:51:06;10.35;;;3.92;;
27163;SDS011;14685;50.618;7.024;2023-09-18T03:53:34;14.15;;;4.60;;
27163;SDS011;14685;50.618;7.024;2023-09-18T03:56:01;11.73;;;4.60;;
27163;SDS011;14685;50.618;7.024;2023-09-18T03:58:29;13.73;;;4.70;;
27163;SDS011;14685;50.618;7.024;2023-09-18T04:00:56;10.98;;;4.72;;
27163;SDS011;14685;50.618;7.024;2023-09-18T04:03:24;11.52;;;4.63;;
27163;SDS011;14685;50.618;7.024;2023-09-18T04:05:53;11.85;;;4.63;;
27163;SDS011;14685;50.618;7.024;2023-09-18T04:08:21;11.93;;;4.90;;
27163;SDS011;14685;50.618;7.024;2023-09-18T04:10:48;10.93;;;5.05;;
27163;SDS011;14685;50.618;7.024;2023-09-18T04:13:16;9.82;;;4.70;;
27163;SDS011;14685;50.618;7.024;2023-09-18T04:15:45;15.07;;;4.47;;
27163;SDS011;14685;50.618;7.024;2023-09-18T04:18:12;7.63;;;4.10;;
27163;SDS011;14685;50.618;7.024;2023-09-18T04:20:40;9.65;;;4.32;;
27163;SDS011;14685;50.618;7.024;2023-09-18T04:23:17;15.75;;;4.60;;
27163;SDS011;14685;50.618;7.024;2023-09-18T04:25:52;14.82;;;4.47;;
27163;SDS011;14685;50.618;7.024;2023-09-18T04:28:20;12.65;;;3.63;;
27163;SDS011;14685;50.618;7.024;2023-09-18T04:30:48;12.00;;;3.88;;
27163;SDS011;14685;50.618;7.024;2023-09-18T04:33:15;14.07;;;4.72;;
27163;SDS011;14685;50.618;7.024;2023-09-18T04:35:43;15.10;;;4.32;;
27163;SDS011;14685;50.618;7.024;2023-09-18T04:38:11;11.35;;;4.28;;
27163;SDS011;14685;50.618;7.024;2023-09-18T04:40:38;11.40;;;4.60;;
27163;SDS011;14685;50.618;7.024;2023-09-18T04:43:07;10.27;;;4.20;;
27163;SDS011;14685;50.618;7.024;2023-09-18T04:45:34;12.90;;;4.18;;
27163;SDS011;14685;50.618;7.024;2023-09-18T04:48:01;13.60;;;4.30;;
27163;SDS011;14685;50.618;7.024;2023-09-18T04:50:29;15.93;;;4.00;;
27163;SDS011;14685;50.618;7.024;2023-09-18T04:52:56;10.77;;;4.00;;
27163;SDS011;14685;50.618;7.024;2023-09-18T04:55:24;11.45;;;3.85;;
27163;SDS011;14685;50.618;7.024;2023-09-18T04:57:51;11.57;;;3.75;;
27163;SDS011;14685;50.618;7.024;2023-09-18T05:00:18;10.65;;;3.30;;
27163;SDS011;14685;50.618;7.024;2023-09-18T05:02:49;8.00;;;2.95;;
27163;SDS011;14685;50.618;7.024;2023-09-18T05:05:17;11.05;;;3.22;;
27163;SDS011;14685;50.618;7.024;2023-09-18T05:07:44;12.10;;;3.63;;
27163;SDS011;14685;50.618;7.024;2023-09-18T05:10:11;9.13;;;2.97;;
27163;SDS011;14685;50.618;7.024;2023-09-18T05:12:38;10.95;;;3.03;;
27163;SDS011;14685;50.618;7.024;2023-09-18T05:15:07;7.45;;;3.20;;
27163;SDS011;14685;50.618;7.024;2023-09-18T05:17:43;7.50;;;2.72;;
27163;SDS011;14685;50.618;7.024;2023-09-18T05:20:19;6.50;;;2.60;;
27163;SDS011;14685;50.618;7.024;2023-09-18T05:22:46;7.05;;;2.70;;
27163;SDS011;14685;50.618;7.024;2023-09-18T05:25:14;7.50;;;2.35;;
27163;SDS011;14685;50.618;7.024;2023-09-18T05:27:42;7.82;;;2.45;;
27163;SDS011;14685;50.618;7.024;2023-09-18T05:30:15;7.13;;;2.33;;
27163;SDS011;14685;50.618;7.024;2023-09-18T05:32:45;11.63;;;2.20;;
27163;SDS011;14685;50.618;7.024;2023-09-18T05:35:12;5.80;;;2.40;;
27163;SDS011;14685;50.618;7.024;2023-09-18T05:37:41;9.02;;;2.42;;
27163;SDS011;14685;50.618;7.024;2023-09-18T05:40:09;7.40;;;2.22;;
27163;SDS011;14685;50.618;7.024;2023-09-18T05:42:37;7.30;;;2.15;;
27163;SDS011;14685;50.618;7.024;2023-09-18T05:45:05;6.53;;;2.00;;
27163;SDS011;14685;50.618;7.024;2023-09-18T05:47:33;5.95;;;1.90;;
27163;SDS011;14685;50.618;7.024;2023-09-18T05:50:02;7.97;;;2.33;;
27163;SDS011;14685;50.618;7.024;2023-09-18T05:52:33;9.82;;;2.70;;
27163;SDS011;14685;50.618;7.024;2023-09-18T05:55:01;6.03;;;2.08;;
27163;SDS011;14685;50.618;7.024;2023-09-18T05:57:31;6.20;;;2.33;;
27163;SDS011;14685;50.618;7.024;2023-09-18T05:59:58;7.35;;;2.00;;
27163;SDS011;14685;50.618;7.024;2023-09-18T06:02:25;8.38;;;2.08;;
27163;SDS011;14685;50.618;7.024;2023-09-18T06:04:55;10.88;;;2.30;;
27163;SDS011;14685;50.618;7.024;2023-09-18T06:07:33;7.68;;;2.25;;
27163;SDS011;14685;50.618;7.024;2023-09-18T06:10:00;4.95;;;2.03;;
27163;SDS011;14685;50.618;7.024;2023-09-18T06:12:27;4.75;;;1.63;;
27163;SDS011;14685;50.618;7.024;2023-09-18T06:14:53;5.55;;;1.80;;
27163;SDS011;14685;50.618;7.024;2023-09-18T06:17:20;7.80;;;2.20;;
27163;SDS011;14685;50.618;7.024;2023-09-18T06:19:48;3.97;;;2.10;;
27163;SDS011;14685;50.618;7.024;2023-09-18T06:22:15;6.25;;;2.28;;
27163;SDS011;14685;50.618;7.024;2023-09-18T06:24:42;6.43;;;1.83;;
27163;SDS011;14685;50.618;7.024;2023-09-18T06:27:09;9.18;;;2.20;;
27163;SDS011;14685;50.618;7.024;2023-09-18T06:29:37;5.68;;;1.85;;
27163;SDS011;14685;50.618;7.024;2023-09-18T06:32:05;4.78;;;1.95;;
27163;SDS011;14685;50.618;7.024;2023-09-18T06:34:33;3.92;;;1.73;;
27163;SDS011;14685;50.618;7.024;2023-09-18T06:37:00;3.20;;;1.73;;
27163;SDS011;14685;50.618;7.024;2023-09-18T06:39:27;5.57;;;1.85;;
27163;SDS011;14685;50.618;7.024;2023-09-18T06:41:54;6.78;;;1.83;;
27163;SDS011;14685;50.618;7.024;2023-09-18T06:44:21;5.32;;;1.80;;
27163;SDS011;14685;50.618;7.024;2023-09-18T06:46:50;4.60;;;1.70;;
27163;SDS011;14685;50.618;7.024;2023-09-18T06:49:17;6.80;;;2.13;;
27163;SDS011;14685;50.618;7.024;2023-09-18T06:51:46;7.47;;;2.08;;
27163;SDS011;14685;50.618;7.024;2023-09-18T06:54:13;4.45;;;1.85;;
27163;SDS011;14685;50.618;7.024;2023-09-18T06:56:41;6.60;;;2.05;;
27163;SDS011;14685;50.618;7.024;2023-09-18T06:59:11;3.55;;;1.58;;
27163;SDS011;14685;50.618;7.024;2023-09-18T07:01:39;7.03;;;1.60;;
27163;SDS011;14685;50.618;7.024;2023-09-18T07:04:07;7.57;;;2.03;;
27163;SDS011;14685;50.618;7.024;2023-09-18T07:06:35;5.47;;;1.67;;
27163;SDS011;14685;50.618;7.024;2023-09-18T07:09:04;4.65;;;1.90;;
27163;SDS011;14685;50.618;7.024;2023-09-18T07:11:33;4.28;;;1.60;;
27163;SDS011;14685;50.618;7.024;2023-09-18T07:14:00;4.75;;;2.10;;
27163;SDS011;14685;50.618;7.024;2023-09-18T07:16:33;3.88;;;1.70;;
27163;SDS011;14685;50.618;7.024;2023-09-18T07:19:00;5.13;;;1.65;;
27163;SDS011;14685;50.618;7.024;2023-09-18T07:21:31;5.82;;;1.70;;
27163;SDS011;14685;50.618;7.024;2023-09-18T07:23:58;5.07;;;1.90;;
27163;SDS011;14685;50.618;7.024;2023-09-18T07:26:25;5.93;;;1.83;;
27163;SDS011;14685;50.618;7.024;2023-09-18T07:28:54;4.43;;;1.80;;
27163;SDS011;14685;50.618;7.024;2023-09-18T07:31:21;3.80;;;2.10;;
27163;SDS011;14685;50.618;7.024;2023-09-18T07:33:48;7.22;;;1.92;;
27163;SDS011;14685;50.618;7.024;2023-09-18T07:36:15;8.02;;;2.10;;
27163;SDS011;14685;50.618;7.024;2023-09-18T07:38:43;10.40;;;2.00;;
27163;SDS011;14685;50.618;7.024;2023-09-18T07:41:10;8.02;;;1.67;;
27163;SDS011;14685;50.618;7.024;2023-09-18T07:43:37;4.78;;;2.13;;
27163;SDS011;14685;50.618;7.024;2023-09-18T07:46:07;8.93;;;2.03;;
27163;SDS011;14685;50.618;7.024;2023-09-18T07:48:34;4.05;;;1.60;;
27163;SDS011;14685;50.618;7.024;2023-09-18T07:51:04;4.50;;;2.00;;
27163;SDS011;14685;50.618;7.024;2023-09-18T07:53:31;8.38;;;2.08;;
27163;SDS011;14685;50.618;7.024;2023-09-18T07:55:58;4.50;;;1.92;;
27163;SDS011;14685;50.618;7.024;2023-09-18T07:58:30;6.25;;;2.00;;
27163;SDS011;14685;50.618;7.024;2023-09-18T08:00:57;6.22;;;2.30;;
27163;SDS011;14685;50.618;7.024;2023-09-18T08:03:25;4.47;;;2.10;;
27163;SDS011;14685;50.618;7.024;2023-09-18T08:05:53;7.70;;;1.83;;
27163;SDS011;14685;50.618;7.024;2023-09-18T08:08:20;4.90;;;1.52;;
27163;SDS011;14685;50.618;7.024;2023-09-18T08:10:48;3.63;;;1.70;;
27163;SDS011;14685;50.618;7.024;2023-09-18T08:13:16;5.68;;;1.85;;
27163;SDS011;14685;50.618;7.024;2023-09-18T08:15:43;3.65;;;1.90;;
27163;SDS011;14685;50.618;7.024;2023-09-18T08:18:10;6.28;;;1.75;;
27163;SDS011;14685;50.618;7.024;2023-09-18T08:20:40;4.40;;;1.67;;
27163;SDS011;14685;50.618;7.024;2023-09-18T08:23:11;5.00;;;2.05;;
27163;SDS011;14685;50.618;7.024;2023-09-18T08:25:38;5.93;;;1.88;;
27163;SDS011;14685;50.618;7.024;2023-09-18T08:28:07;3.45;;;1.50;;
27163;SDS011;14685;50.618;7.024;2023-09-18T08:30:35;3.70;;;1.40;;
27163;SDS011;14685;50.618;7.024;2023-09-18T08:33:03;7.28;;;1.73;;
27163;SDS011;14685;50.618;7.024;2023-09-18T08:35:31;5.78;;;1.70;;
27163;SDS011;14685;50.618;7.024;2023-09-18T08:37:58;2.65;;;1.42;;
27163;SDS011;14685;50.618;7.024;2023-09-18T08:40:26;5.75;;;1.70;;
27163;SDS011;14685;50.618;7.024;2023-09-18T08:42:53;4.50;;;1.67;;
27163;SDS011;14685;50.618;7.024;2023-09-18T08:45:33;4.85;;;1.80;;
27163;SDS011;14685;50.618;7.024;2023-09-18T08:48:22;3.75;;;1.73;;
27163;SDS011;14685;50.618;7.024;2023-09-18T08:50:49;3.55;;;1.52;;
27163;SDS011;14685;50.618;7.024;2023-09-18T08:53:17;2.80;;;1.60;;
27163;SDS011;14685;50.618;7.024;2023-09-18T08:55:48;6.95;;;1.90;;
27163;SDS011;14685;50.618;7.024;2023-09-18T08:58:15;4.45;;;1.45;;
27163;SDS011;14685;50.618;7.024;2023-09-18T09:00:45;1.73;;;1.40;;
27163;SDS011;14685;50.618;7.024;2023-09-18T09:03:12;4.35;;;1.70;;
27163;SDS011;14685;50.618;7.024;2023-09-18T09:05:40;5.47;;;1.60;;
27163;SDS011;14685;50.618;7.024;2023-09-18T09:08:07;5.55;;;1.77;;
27163;SDS011;14685;50.618;7.024;2023-09-18T09:10:34;2.72;;;1.60;;
27163;SDS011;14685;50.618;7.024;2023-09-18T09:13:04;4.18;;;1.90;;
27163;SDS011;14685;50.618;7.024;2023-09-18T09:15:42;5.55;;;1.85;;
27163;SDS011;14685;50.618;7.024;2023-09-18T09:18:15;3.83;;;1.50;;
27163;SDS011;14685;50.618;7.024;2023-09-18T09:23:50;4.85;;;1.63;;
27163;SDS011;14685;50.618;7.024;2023-09-18T09:26:21;3.15;;;1.60;;
27163;SDS011;14685;50.618;7.024;2023-09-18T09:28:50;6.97;;;1.80;;
27163;SDS011;14685;50.618;7.024;2023-09-18T09:31:28;3.25;;;1.38;;
27163;SDS011;14685;50.618;7.024;2023-09-18T09:33:57;3.75;;;1.30;;
27163;SDS011;14685;50.618;7.024;2023-09-18T09:36:25;3.25;;;1.73;;
27163;SDS011;14685;50.618;7.024;2023-09-18T09:38:57;4.32;;;1.40;;
27163;SDS011;14685;50.618;7.024;2023-09-18T09:41:26;3.70;;;1.63;;
27163;SDS011;14685;50.618;7.024;2023-09-18T09:43:58;3.20;;;1.58;;
27163;SDS011;14685;50.618;7.024;2023-09-18T09:46:25;3.30;;;1.45;;
27163;SDS011;14685;50.618;7.024;2023-09-18T09:51:30;4.50;;;1.63;;
27163;SDS011;14685;50.618;7.024;2023-09-18T09:53:58;3.80;;;1.77;;
27163;SDS011;14685;50.618;7.024;2023-09-18T09:59:18;9.25;;;3.03;;
27163;SDS011;14685;50.618;7.024;2023-09-18T10:01:46;3.97;;;1.88;;
27163;SDS011;14685;50.618;7.024;2023-09-18T10:04:16;4.80;;;1.23;;
27163;SDS011;14685;50.618;7.024;2023-09-18T10:06:51;6.78;;;1.35;;
27163;SDS011;14685;50.618;7.024;2023-09-18T10:09:21;4.10;;;1.40;;
27163;SDS011;14685;50.618;7.024;2023-09-18T10:11:51;3.17;;;1.55;;
27163;SDS011;14685;50.618;7.024;2023-09-18T10:14:21;5.57;;;1.60;;
27163;SDS011;14685;50.618;7.024;2023-09-18T10:17:22;4.40;;;1.60;;
27163;SDS011;14685;50.618;7.024;2023-09-18T10:19:52;3.30;;;1.63;;
27163;SDS011;14685;50.618;7.024;2023-09-18T10:22:38;3.55;;;1.40;;
27163;SDS011;14685;50.618;7.024;2023-09-18T10:25:11;5.40;;;2.28;;
27163;SDS011;14685;50.618;7.024;2023-09-18T10:27:45;3.97;;;1.25;;
27163;SDS011;14685;50.618;7.024;2023-09-18T10:30:16;6.93;;;3.15;;
27163;SDS011;14685;50.618;7.024;2023-09-18T10:32:45;6.25;;;1.98;;
27163;SDS011;14685;50.618;7.024;2023-09-18T10:35:12;1.40;;;1.10;;
27163;SDS011;14685;50.618;7.024;2023-09-18T10:37:41;2.67;;;1.40;;
27163;SDS011;14685;50.618;7.024;2023-09-18T10:40:12;3.75;;;1.48;;
27163;SDS011;14685;50.618;7.024;2023-09-18T10:42:39;4.90;;;1.40;;
27163;SDS011;14685;50.618;7.024;2023-09-18T10:45:09;6.13;;;1.48;;
27163;SDS011;14685;50.618;7.024;2023-09-18T10:47:41;3.33;;;1.20;;
27163;SDS011;14685;50.618;7.024;2023-09-18T10:50:11;4.93;;;1.30;;
27163;SDS011;14685;50.618;7.024;2023-09-18T10:52:48;3.83;;;1.60;;
27163;SDS011;14685;50.618;7.024;2023-09-18T10:55:15;2.80;;;1.33;;
27163;SDS011;14685;50.618;7.024;2023-09-18T10:57:49;1.42;;;1.05;;
27163;SDS011;14685;50.618;7.024;2023-09-18T11:00:21;2.92;;;1.10;;
27163;SDS011;14685;50.618;7.024;2023-09-18T11:02:51;2.42;;;1.15;;
27163;SDS011;14685;50.618;7.024;2023-09-18T11:05:29;1.85;;;1.17;;
27163;SDS011;14685;50.618;7.024;2023-09-18T11:11:00;3.67;;;1.50;;
27163;SDS011;14685;50.618;7.024;2023-09-18T11:13:50;5.45;;;1.40;;
27163;SDS011;14685;50.618;7.024;2023-09-18T11:21:29;3.53;;;1.38;;
27163;SDS011;14685;50.618;7.024;2023-09-18T11:23:57;4.28;;;1.45;;
27163;SDS011;14685;50.618;7.024;2023-09-18T11:26:28;2.25;;;1.40;;
27163;SDS011;14685;50.618;7.024;2023-09-18T11:29:00;2.63;;;1.20;;
27163;SDS011;14685;50.618;7.024;2023-09-18T11:31:43;2.22;;;1.60;;
27163;SDS011;14685;50.618;7.024;2023-09-18T11:34:15;2.30;;;1.23;;
27163;SDS011;14685;50.618;7.024;2023-09-18T11:36:57;3.22;;;1.40;;
27163;SDS011;14685;50.618;7.024;2023-09-18T11:39:35;2.88;;;1.50;;
27163;SDS011;14685;50.618;7.024;2023-09-18T11:42:08;4.13;;;1.77;;
27163;SDS011;14685;50.618;7.024;2023-09-18T11:44:39;2.38;;;1.40;;
27163;SDS011;14685;50.618;7.024;2023-09-18T11:47:14;3.92;;;1.40;;
27163;SDS011;14685;50.618;7.024;2023-09-18T11:49:50;2.78;;;1.33;;
27163;SDS011;14685;50.618;7.024;2023-09-18T11:52:29;2.10;;;1.33;;
27163;SDS011;14685;50.618;7.024;2023-09-18T11:54:58;3.03;;;1.52;;
27163;SDS011;14685;50.618;7.024;2023-09-18T11:57:27;2.50;;;1.38;;
27163;SDS011;14685;50.618;7.024;2023-09-18T11:59:56;1.77;;;1.40;;
27163;SDS011;14685;50.618;7.024;2023-09-18T12:02:27;3.85;;;1.30;;
27163;SDS011;14685;50.618;7.024;2023-09-18T12:05:04;3.00;;;1.50;;
27163;SDS011;14685;50.618;7.024;2023-09-18T12:07:37;5.25;;;1.75;;
27163;SDS011;14685;50.618;7.024;2023-09-18T12:10:05;1.73;;;1.40;;
27163;SDS011;14685;50.618;7.024;2023-09-18T12:12:35;1.67;;;1.40;;
27163;SDS011;14685;50.618;7.024;2023-09-18T12:15:02;3.72;;;1.50;;
27163;SDS011;14685;50.618;7.024;2023-09-18T12:17:30;2.55;;;1.50;;
27163;SDS011;14685;50.618;7.024;2023-09-18T12:19:57;6.82;;;1.75;;
27163;SDS011;14685;50.618;7.024;2023-09-18T12:22:24;2.08;;;1.30;;
27163;SDS011;14685;50.618;7.024;2023-09-18T12:25:08;3.63;;;1.67;;
27163;SDS011;14685;50.618;7.024;2023-09-18T12:27:55;3.55;;;1.55;;
27163;SDS011;14685;50.618;7.024;2023-09-18T12:30:22;1.55;;;1.40;;
27163;SDS011;14685;50.618;7.024;2023-09-18T12:32:50;4.53;;;1.20;;
27163;SDS011;14685;50.618;7.024;2023-09-18T12:35:18;5.40;;;1.60;;
27163;SDS011;14685;50.618;7.024;2023-09-18T12:37:45;5.32;;;1.40;;
27163;SDS011;14685;50.618;7.024;2023-09-18T12:40:25;4.68;;;1.52;;
27163;SDS011;14685;50.618;7.024;2023-09-18T12:42:55;11.52;;;2.00;;
27163;SDS011;14685;50.618;7.024;2023-09-18T12:45:26;8.15;;;1.30;;
27163;SDS011;14685;50.618;7.024;2023-09-18T12:47:54;4.05;;;1.38;;
27163;SDS011;14685;50.618;7.024;2023-09-18T12:50:24;4.85;;;1.10;;
27163;SDS011;14685;50.618;7.024;2023-09-18T12:52:52;3.72;;;1.20;;
27163;SDS011;14685;50.618;7.024;2023-09-18T12:55:26;3.08;;;1.38;;
27163;SDS011;14685;50.618;7.024;2023-09-18T12:57:55;1.88;;;1.25;;
27163;SDS011;14685;50.618;7.024;2023-09-18T13:00:22;2.08;;;1.17;;
27163;SDS011;14685;50.618;7.024;2023-09-18T13:02:53;3.10;;;1.15;;
27163;SDS011;14685;50.618;7.024;2023-09-18T13:05:25;4.38;;;1.60;;
27163;SDS011;14685;50.618;7.024;2023-09-18T13:07:52;2.63;;;1.60;;
27163;SDS011;14685;50.618;7.024;2023-09-18T13:10:20;2.50;;;1.45;;
27163;SDS011;14685;50.618;7.024;2023-09-18T13:12:52;2.83;;;1.50;;
27163;SDS011;14685;50.618;7.024;2023-09-18T13:18:01;2.40;;;1.30;;
27163;SDS011;14685;50.618;7.024;2023-09-18T13:20:35;2.33;;;1.40;;
27163;SDS011;14685;50.618;7.024;2023-09-18T13:23:04;3.83;;;1.27;;
27163;SDS011;14685;50.618;7.024;2023-09-18T13:25:32;3.30;;;1.50;;
27163;SDS011;14685;50.618;7.024;2023-09-18T13:28:01;2.75;;;1.48;;
27163;SDS011;14685;50.618;7.024;2023-09-18T13:30:30;2.70;;;1.50;;
27163;SDS011;14685;50.618;7.024;2023-09-18T13:33:01;2.42;;;1.35;;
27163;SDS011;14685;50.618;7.024;2023-09-18T13:35:33;2.40;;;1.60;;
27163;SDS011;14685;50.618;7.024;2023-09-18T13:38:02;3.35;;;1.30;;
27163;SDS011;14685;50.618;7.024;2023-09-18T13:40:32;3.10;;;1.58;;
27163;SDS011;14685;50.618;7.024;2023-09-18T13:42:59;3.17;;;1.58;;
27163;SDS011;14685;50.618;7.024;2023-09-18T13:45:26;3.10;;;1.40;;
27163;SDS011;14685;50.618;7.024;2023-09-18T13:47:53;1.85;;;1.20;;
27163;SDS011;14685;50.618;7.024;2023-09-18T13:50:23;2.08;;;1.35;;
27163;SDS011;14685;50.618;7.024;2023-09-18T13:52:52;2.05;;;1.45;;
27163;SDS011;14685;50.618;7.024;2023-09-18T13:55:20;2.75;;;1.58;;
27163;SDS011;14685;50.618;7.024;2023-09-18T13:57:47;4.38;;;1.58;;
27163;SDS011;14685;50.618;7.024;2023-09-18T14:00:14;3.30;;;1.55;;
27163;SDS011;14685;50.618;7.024;2023-09-18T14:02:43;2.25;;;1.40;;
27163;SDS011;14685;50.618;7.024;2023-09-18T14:05:10;1.60;;;1.23;;
27163;SDS011;14685;50.618;7.024;2023-09-18T14:07:43;2.80;;;1.33;;
27163;SDS011;14685;50.618;7.024;2023-09-18T14:10:14;3.95;;;1.70;;
27163;SDS011;14685;50.618;7.024;2023-09-18T14:12:43;1.63;;;1.25;;
27163;SDS011;14685;50.618;7.024;2023-09-18T14:15:10;5.03;;;1.63;;
27163;SDS011;14685;50.618;7.024;2023-09-18T14:17:41;2.67;;;1.35;;
27163;SDS011;14685;50.618;7.024;2023-09-18T14:20:09;3.00;;;1.65;;
27163;SDS011;14685;50.618;7.024;2023-09-18T14:22:37;2.70;;;1.38;;
27163;SDS011;14685;50.618;7.024;2023-09-18T14:25:04;2.38;;;1.33;;
27163;SDS011;14685;50.618;7.024;2023-09-18T14:27:33;3.28;;;1.30;;
27163;SDS011;14685;50.618;7.024;2023-09-18T14:30:01;1.98;;;1.65;;
27163;SDS011;14685;50.618;7.024;2023-09-18T14:32:35;2.22;;;1.48;;
27163;SDS011;14685;50.618;7.024;2023-09-18T14:35:04;2.65;;;1.38;;
27163;SDS011;14685;50.618;7.024;2023-09-18T14:37:35;2.30;;;1.30;;
27163;SDS011;14685;50.618;7.024;2023-09-18T14:40:03;2.67;;;1.50;;
27163;SDS011;14685;50.618;7.024;2023-09-18T14:42:32;3.83;;;1.55;;
27163;SDS011;14685;50.618;7.024;2023-09-18T14:45:01;2.42;;;1.52;;
27163;SDS011;14685;50.618;7.024;2023-09-18T14:47:28;3.58;;;1.45;;
27163;SDS011;14685;50.618;7.024;2023-09-18T14:49:57;2.95;;;1.60;;
27163;SDS011;14685;50.618;7.024;2023-09-18T14:52:25;2.80;;;1.35;;
27163;SDS011;14685;50.618;7.024;2023-09-18T14:54:52;2.58;;;1.50;;
27163;SDS011;14685;50.618;7.024;2023-09-18T14:57:19;3.30;;;1.25;;
27163;SDS011;14685;50.618;7.024;2023-09-18T14:59:46;1.83;;;1.33;;
27163;SDS011;14685;50.618;7.024;2023-09-18T15:02:16;3.60;;;1.30;;
27163;SDS011;14685;50.618;7.024;2023-09-18T15:04:44;6.97;;;1.67;;
27163;SDS011;14685;50.618;7.024;2023-09-18T15:07:12;2.67;;;1.60;;
27163;SDS011;14685;50.618;7.024;2023-09-18T15:09:40;4.28;;;1.40;;
27163;SDS011;14685;50.618;7.024;2023-09-18T15:12:07;4.20;;;1.25;;
27163;SDS011;14685;50.618;7.024;2023-09-18T15:14:35;4.18;;;1.30;;
27163;SDS011;14685;50.618;7.024;2023-09-18T15:17:02;2.65;;;1.20;;
27163;SDS011;14685;50.618;7.024;2023-09-18T15:19:30;1.85;;;1.20;;
27163;SDS011;14685;50.618;7.024;2023-09-18T15:22:03;3.40;;;1.17;;